Time;durP1;ratioP1;P1;durP2;ratioP2;P2;SDS_P1;SDS_P2;PMS_P1;PMS_P2;Temp;Humidity;BMP_temperature;BMP_pressure;BME280_temperature;BME280_humidity;BME280_pressure;Samples;Min_cycle;Max_cycle;Signal;HPM_P1;HPM_P2
2022/07/17 00:00:42;;;;;;;3.70;1.90;;;;;;;;;;4933234;28;20042;-63
2022/07/17 00:03:07;;;;;;;4.43;1.70;;;;;;;;;;4938151;28;20065;-65
2022/07/17 00:05:33;;;;;;;5.30;1.73;;;;;;;;;;4934682;28;20039;-65
2022/07/17 00:08:00;;;;;;;6.55;2.15;;;;;;;;;;4920506;28;20213;-63
2022/07/17 00:10:28;;;;;;;4.03;1.77;;;;;;;;;;4934711;28;20943;-65
2022/07/17 00:12:54;;;;;;;4.38;1.60;;;;;;;;;;4934523;28;20038;-65
2022/07/17 00:15:19;;;;;;;5.75;1.80;;;;;;;;;;4935375;28;20974;-63
2022/07/17 00:17:44;;;;;;;5.85;1.92;;;;;;;;;;4916662;28;20042;-65
2022/07/17 00:20:10;;;;;;;4.97;1.60;;;;;;;;;;4935063;28;20038;-63
2022/07/17 00:22:35;;;;;;;5.93;1.77;;;;;;;;;;4947868;28;20081;-64
2022/07/17 00:25:01;;;;;;;5.40;1.73;;;;;;;;;;4934197;28;20039;-64
2022/07/17 00:27:31;;;;;;;9.95;1.83;;;;;;;;;;4949141;28;20053;-64
2022/07/17 00:30:00;;;;;;;4.57;1.77;;;;;;;;;;4934257;28;21145;-64
2022/07/17 00:32:25;;;;;;;5.72;1.77;;;;;;;;;;4933929;28;20774;-64
2022/07/17 00:34:51;;;;;;;5.97;1.95;;;;;;;;;;4933758;28;20035;-63
2022/07/17 00:37:16;;;;;;;5.03;1.60;;;;;;;;;;4934341;28;20842;-63
2022/07/17 00:39:42;;;;;;;7.18;1.60;;;;;;;;;;4933608;28;20039;-64
2022/07/17 00:42:11;;;;;;;4.35;1.80;;;;;;;;;;4934378;28;20031;-63
2022/07/17 00:44:37;;;;;;;6.70;2.22;;;;;;;;;;4933505;28;20034;-63
2022/07/17 00:47:02;;;;;;;3.30;1.90;;;;;;;;;;4934417;28;20726;-63
2022/07/17 00:49:28;;;;;;;5.30;1.92;;;;;;;;;;4932617;28;20042;-64
2022/07/17 00:51:53;;;;;;;4.57;2.10;;;;;;;;;;4933932;28;20031;-65
2022/07/17 00:54:19;;;;;;;5.22;1.83;;;;;;;;;;4933345;28;20077;-65
2022/07/17 00:56:48;;;;;;;4.70;1.83;;;;;;;;;;4933163;28;20046;-63
2022/07/17 00:59:14;;;;;;;6.43;2.10;;;;;;;;;;4931660;28;20039;-64
2022/07/17 01:01:39;;;;;;;5.03;1.92;;;;;;;;;;4934505;28;20094;-65
2022/07/17 01:04:07;;;;;;;2.75;1.70;;;;;;;;;;4933576;28;20053;-65
2022/07/17 01:06:33;;;;;;;4.20;1.80;;;;;;;;;;4932250;28;20035;-64
2022/07/17 01:08:58;;;;;;;5.40;2.17;;;;;;;;;;4933506;28;20273;-66
2022/07/17 01:11:24;;;;;;;7.53;2.00;;;;;;;;;;4933683;28;20035;-63
2022/07/17 01:13:49;;;;;;;4.75;1.90;;;;;;;;;;4933399;28;20060;-65
2022/07/17 01:16:15;;;;;;;5.78;2.20;;;;;;;;;;4933570;28;20057;-64
2022/07/17 01:18:41;;;;;;;4.68;1.98;;;;;;;;;;4933694;28;20852;-65
2022/07/17 01:21:10;;;;;;;5.90;2.08;;;;;;;;;;4932393;28;20442;-66
2022/07/17 01:23:35;;;;;;;4.40;1.80;;;;;;;;;;4932857;28;20171;-64
2022/07/17 01:26:00;;;;;;;4.95;2.17;;;;;;;;;;4933059;28;20043;-64
2022/07/17 01:28:30;;;;;;;6.47;2.00;;;;;;;;;;4932522;28;20077;-64
2022/07/17 01:31:00;;;;;;;3.97;1.80;;;;;;;;;;4932770;28;21145;-64
2022/07/17 01:33:25;;;;;;;4.80;2.00;;;;;;;;;;4933108;28;20034;-64
2022/07/17 01:35:51;;;;;;;4.82;2.00;;;;;;;;;;4935236;28;20078;-65
2022/07/17 01:38:16;;;;;;;6.00;2.50;;;;;;;;;;4933528;28;20038;-65
2022/07/17 01:40:41;;;;;;;4.38;1.90;;;;;;;;;;4932552;28;20872;-65
2022/07/17 01:43:07;;;;;;;5.78;2.13;;;;;;;;;;4931946;28;20049;-63
2022/07/17 01:45:35;;;;;;;6.40;2.20;;;;;;;;;;4947131;28;20747;-65
2022/07/17 01:48:00;;;;;;;6.25;2.42;;;;;;;;;;4933290;28;20078;-64
2022/07/17 01:50:26;;;;;;;6.40;2.53;;;;;;;;;;4946404;28;20058;-64
2022/07/17 01:52:51;;;;;;;6.72;2.30;;;;;;;;;;4932973;28;20046;-63
2022/07/17 01:55:16;;;;;;;4.63;2.22;;;;;;;;;;4946989;28;20035;-63
2022/07/17 01:57:42;;;;;;;6.05;2.22;;;;;;;;;;4932800;28;20042;-63
2022/07/17 02:00:15;;;;;;;8.10;2.33;;;;;;;;;;4932454;28;20061;-63
2022/07/17 02:02:40;;;;;;;6.45;2.40;;;;;;;;;;4932686;28;20428;-63
2022/07/17 02:05:06;;;;;;;5.82;2.45;;;;;;;;;;4930861;28;20038;-63
2022/07/17 02:07:32;;;;;;;8.35;2.30;;;;;;;;;;4932809;28;20050;-63
2022/07/17 02:09:58;;;;;;;5.65;2.30;;;;;;;;;;4932918;28;20254;-63
2022/07/17 02:12:23;;;;;;;5.75;2.40;;;;;;;;;;4947283;28;20039;-63
2022/07/17 02:14:48;;;;;;;9.63;3.35;;;;;;;;;;4930313;28;20038;-63
2022/07/17 02:17:13;;;;;;;6.13;2.22;;;;;;;;;;4946716;28;20050;-65
2022/07/17 02:19:39;;;;;;;4.82;2.08;;;;;;;;;;4932365;28;20566;-64
2022/07/17 02:22:04;;;;;;;6.47;2.50;;;;;;;;;;4930119;28;20039;-64
2022/07/17 02:24:29;;;;;;;4.40;2.00;;;;;;;;;;4932768;28;20050;-63
2022/07/17 02:26:55;;;;;;;5.63;2.20;;;;;;;;;;4932066;28;20133;-63
2022/07/17 02:29:20;;;;;;;5.25;2.35;;;;;;;;;;4946114;28;21251;-63
2022/07/17 02:31:45;;;;;;;4.35;2.40;;;;;;;;;;4932197;28;20081;-63
2022/07/17 02:34:12;;;;;;;5.10;2.60;;;;;;;;;;4932280;28;20031;-64
2022/07/17 02:36:38;;;;;;;7.07;2.38;;;;;;;;;;4935301;28;20041;-64
2022/07/17 02:39:04;;;;;;;6.07;2.20;;;;;;;;;;4945890;28;20039;-64
2022/07/17 02:41:29;;;;;;;4.25;2.22;;;;;;;;;;4932110;28;20870;-64
2022/07/17 02:43:54;;;;;;;5.60;2.30;;;;;;;;;;4932470;28;20034;-65
2022/07/17 02:46:19;;;;;;;6.07;2.65;;;;;;;;;;4933116;28;20917;-64
2022/07/17 02:48:45;;;;;;;4.22;2.47;;;;;;;;;;4931267;28;20053;-63
2022/07/17 02:51:13;;;;;;;5.68;2.40;;;;;;;;;;4931992;28;20831;-63
2022/07/17 02:53:38;;;;;;;6.93;2.60;;;;;;;;;;4932978;28;20043;-63
2022/07/17 02:56:06;;;;;;;6.43;2.75;;;;;;;;;;4948750;28;20774;-65
2022/07/17 02:58:33;;;;;;;5.32;3.30;;;;;;;;;;4938737;28;20058;-62
2022/07/17 03:00:59;;;;;;;7.70;2.92;;;;;;;;;;4934794;28;20035;-65
2022/07/17 03:03:24;;;;;;;6.43;3.00;;;;;;;;;;4936493;28;20065;-63
2022/07/17 03:05:50;;;;;;;5.88;2.63;;;;;;;;;;4936059;28;20035;-63
2022/07/17 03:08:20;;;;;;;8.98;3.20;;;;;;;;;;4937133;28;20049;-63
2022/07/17 03:10:45;;;;;;;7.38;3.08;;;;;;;;;;4935022;28;20153;-62
2022/07/17 03:13:10;;;;;;;5.15;2.55;;;;;;;;;;4935442;28;20061;-63
2022/07/17 03:15:38;;;;;;;5.82;2.88;;;;;;;;;;4948742;28;20038;-64
2022/07/17 03:18:05;;;;;;;6.75;2.97;;;;;;;;;;4935732;28;20065;-64
2022/07/17 03:20:30;;;;;;;7.20;3.50;;;;;;;;;;4949069;28;20050;-64
2022/07/17 03:22:56;;;;;;;6.53;2.70;;;;;;;;;;4935181;28;20169;-64
2022/07/17 03:25:21;;;;;;;5.88;2.70;;;;;;;;;;4935038;28;20097;-64
2022/07/17 03:27:46;;;;;;;5.05;2.90;;;;;;;;;;4934883;28;20153;-64
2022/07/17 03:30:12;;;;;;;6.85;2.80;;;;;;;;;;4935261;28;20710;-64
2022/07/17 03:32:37;;;;;;;6.25;2.80;;;;;;;;;;4936262;28;20038;-65
2022/07/17 03:35:03;;;;;;;7.55;3.17;;;;;;;;;;4934815;28;20050;-64
2022/07/17 03:37:31;;;;;;;5.05;2.70;;;;;;;;;;4928035;28;20133;-64
2022/07/17 03:39:56;;;;;;;7.43;2.92;;;;;;;;;;4949281;28;20146;-64
2022/07/17 03:42:21;;;;;;;8.27;2.90;;;;;;;;;;4944005;28;20156;-64
2022/07/17 03:44:51;;;;;;;4.97;2.60;;;;;;;;;;4948505;28;20050;-64
2022/07/17 03:47:17;;;;;;;7.75;2.83;;;;;;;;;;4948300;28;20743;-64
2022/07/17 03:49:42;;;;;;;11.85;6.80;;;;;;;;;;4948524;28;20158;-64
2022/07/17 03:52:10;;;;;;;7.95;3.88;;;;;;;;;;4934938;28;20158;-64
2022/07/17 03:54:35;;;;;;;7.53;3.22;;;;;;;;;;4948779;28;20224;-64
2022/07/17 03:57:01;;;;;;;6.20;2.67;;;;;;;;;;4947688;28;20093;-64
2022/07/17 03:59:27;;;;;;;5.88;3.28;;;;;;;;;;4934859;28;20049;-64
2022/07/17 04:01:53;;;;;;;7.55;2.72;;;;;;;;;;4933985;28;20057;-64
2022/07/17 04:04:19;;;;;;;6.97;3.17;;;;;;;;;;4935096;28;21380;-64
2022/07/17 04:06:44;;;;;;;5.78;2.85;;;;;;;;;;4933444;28;20098;-64
2022/07/17 04:09:09;;;;;;;4.70;2.78;;;;;;;;;;4947129;28;20034;-63
2022/07/17 04:11:37;;;;;;;5.13;2.70;;;;;;;;;;4934612;28;20042;-64
2022/07/17 04:14:02;;;;;;;7.38;2.28;;;;;;;;;;4933655;28;20034;-64
2022/07/17 04:16:27;;;;;;;7.35;2.65;;;;;;;;;;4934092;28;20038;-64
2022/07/17 04:18:53;;;;;;;8.52;2.67;;;;;;;;;;4934246;28;21072;-63
2022/07/17 04:21:19;;;;;;;8.05;2.67;;;;;;;;;;4932820;28;20031;-63
2022/07/17 04:23:46;;;;;;;9.40;3.33;;;;;;;;;;4937745;28;20986;-64
2022/07/17 04:26:12;;;;;;;10.85;3.97;;;;;;;;;;4934369;28;20134;-64
2022/07/17 04:28:40;;;;;;;8.32;3.08;;;;;;;;;;4933729;28;20105;-63
2022/07/17 04:31:05;;;;;;;5.50;2.60;;;;;;;;;;4933661;28;20039;-63
2022/07/17 04:33:33;;;;;;;4.13;2.63;;;;;;;;;;4947057;28;20572;-64
2022/07/17 04:35:58;;;;;;;8.57;2.88;;;;;;;;;;4928205;28;20042;-64
2022/07/17 04:38:23;;;;;;;5.88;2.78;;;;;;;;;;4931291;28;20050;-64
2022/07/17 04:40:51;;;;;;;7.93;3.00;;;;;;;;;;4932049;28;20033;-63
2022/07/17 04:43:16;;;;;;;7.55;2.80;;;;;;;;;;4929893;28;21105;-64
2022/07/17 04:45:42;;;;;;;7.28;2.90;;;;;;;;;;4931867;28;20065;-63
2022/07/17 04:48:07;;;;;;;7.95;2.88;;;;;;;;;;4930512;28;20058;-63
2022/07/17 04:50:33;;;;;;;7.03;2.72;;;;;;;;;;4932323;28;20311;-63
2022/07/17 04:53:00;;;;;;;11.30;3.47;;;;;;;;;;4944563;28;20038;-63
2022/07/17 04:55:27;;;;;;;7.05;3.15;;;;;;;;;;4932104;28;20053;-63
2022/07/17 04:57:53;;;;;;;10.88;3.45;;;;;;;;;;4930739;28;20046;-70
2022/07/17 05:00:19;;;;;;;11.23;4.13;;;;;;;;;;4931136;28;20065;-67
2022/07/17 05:02:46;;;;;;;12.63;4.10;;;;;;;;;;4931703;28;20937;-67
2022/07/17 05:05:12;;;;;;;10.55;4.05;;;;;;;;;;4945441;28;20035;-69
2022/07/17 05:07:37;;;;;;;12.35;4.30;;;;;;;;;;4932441;28;20038;-69
2022/07/17 05:10:04;;;;;;;13.90;4.35;;;;;;;;;;4932321;28;20038;-69
2022/07/17 05:12:29;;;;;;;11.43;4.75;;;;;;;;;;4932410;28;20085;-68
2022/07/17 05:14:54;;;;;;;17.25;6.60;;;;;;;;;;4930180;28;20576;-68
2022/07/17 05:17:23;;;;;;;10.90;5.85;;;;;;;;;;4930309;28;20084;-68
2022/07/17 05:19:48;;;;;;;15.57;5.78;;;;;;;;;;4930345;28;20648;-67
2022/07/17 05:22:16;;;;;;;10.23;3.88;;;;;;;;;;4930895;28;20034;-68
2022/07/17 05:24:42;;;;;;;10.38;3.08;;;;;;;;;;4930100;28;20539;-68
2022/07/17 05:27:07;;;;;;;9.50;3.22;;;;;;;;;;4932306;28;20069;-71
2022/07/17 05:29:35;;;;;;;13.82;3.10;;;;;;;;;;4940499;28;20815;-69
2022/07/17 05:32:03;;;;;;;11.70;2.90;;;;;;;;;;4945351;28;20027;-69
2022/07/17 05:34:28;;;;;;;8.80;2.83;;;;;;;;;;4932823;28;21889;-69
2022/07/17 05:36:54;;;;;;;10.77;3.17;;;;;;;;;;4932804;28;20031;-69
2022/07/17 05:39:24;;;;;;;10.45;3.35;;;;;;;;;;4933024;28;21208;-69
2022/07/17 05:41:49;;;;;;;8.00;3.00;;;;;;;;;;4936222;28;20591;-70
2022/07/17 05:44:15;;;;;;;11.93;3.10;;;;;;;;;;4934704;28;20038;-71
2022/07/17 05:46:40;;;;;;;7.70;2.42;;;;;;;;;;4936767;28;20117;-69
2022/07/17 05:49:06;;;;;;;10.27;2.70;;;;;;;;;;4932044;28;20027;-68
2022/07/17 05:51:33;;;;;;;6.70;2.00;;;;;;;;;;4933037;28;20631;-69
2022/07/17 05:53:59;;;;;;;7.88;2.30;;;;;;;;;;4935095;28;20050;-69
2022/07/17 05:56:26;;;;;;;8.52;2.60;;;;;;;;;;4948416;28;20059;-69
2022/07/17 05:58:52;;;;;;;10.23;3.67;;;;;;;;;;4934801;28;20052;-70
2022/07/17 06:01:20;;;;;;;12.25;4.75;;;;;;;;;;4935338;28;20031;-71
2022/07/17 06:03:45;;;;;;;12.82;4.43;;;;;;;;;;4954405;28;20206;-69
2022/07/17 06:06:10;;;;;;;11.20;4.35;;;;;;;;;;4945611;28;20030;-70
2022/07/17 06:08:39;;;;;;;13.40;4.50;;;;;;;;;;4941460;28;20162;-69
2022/07/17 06:11:09;;;;;;;13.53;4.80;;;;;;;;;;4948720;28;20038;-70
2022/07/17 06:13:35;;;;;;;10.27;3.40;;;;;;;;;;4936174;28;20042;-70
2022/07/17 06:16:02;;;;;;;9.32;2.50;;;;;;;;;;4947048;28;20042;-69
2022/07/17 06:18:27;;;;;;;12.05;4.05;;;;;;;;;;4948896;28;20720;-68
2022/07/17 06:20:55;;;;;;;14.02;4.20;;;;;;;;;;4946684;28;20097;-69
2022/07/17 06:23:20;;;;;;;10.50;3.25;;;;;;;;;;4963624;28;20033;-69
2022/07/17 06:25:48;;;;;;;12.18;5.10;;;;;;;;;;4932845;28;20074;-63
2022/07/17 06:28:13;;;;;;;10.02;5.00;;;;;;;;;;4930918;28;20113;-63
2022/07/17 06:30:38;;;;;;;12.27;4.78;;;;;;;;;;4937082;28;20276;-64
2022/07/17 06:33:03;;;;;;;9.27;3.70;;;;;;;;;;4930452;28;20137;-63
2022/07/17 06:35:30;;;;;;;11.23;3.75;;;;;;;;;;4932410;28;22271;-63
2022/07/17 06:37:56;;;;;;;8.55;2.83;;;;;;;;;;4946467;28;20400;-63
2022/07/17 06:40:21;;;;;;;6.97;2.40;;;;;;;;;;4947382;28;20802;-64
2022/07/17 06:42:46;;;;;;;6.75;2.35;;;;;;;;;;4932925;28;20165;-63
2022/07/17 06:45:11;;;;;;;7.63;2.17;;;;;;;;;;4936650;28;20145;-66
2022/07/17 06:47:37;;;;;;;6.18;1.80;;;;;;;;;;4946872;28;20341;-64
2022/07/17 06:50:05;;;;;;;9.63;2.97;;;;;;;;;;4931827;28;20613;-72
2022/07/17 06:52:30;;;;;;;10.45;3.72;;;;;;;;;;4934849;28;20570;-71
2022/07/17 06:54:58;;;;;;;11.05;3.47;;;;;;;;;;4933855;28;20046;-71
2022/07/17 06:57:23;;;;;;;10.40;4.13;;;;;;;;;;4932859;28;20046;-71
2022/07/17 06:59:49;;;;;;;12.43;4.50;;;;;;;;;;4932257;28;20121;-71
2022/07/17 07:02:14;;;;;;;10.35;4.07;;;;;;;;;;4930952;28;20145;-72
2022/07/17 07:04:40;;;;;;;15.82;4.72;;;;;;;;;;4932505;28;20043;-72
2022/07/17 07:07:05;;;;;;;13.77;5.25;;;;;;;;;;4931321;28;20055;-71
2022/07/17 07:09:33;;;;;;;10.43;3.85;;;;;;;;;;4945772;28;20033;-72
2022/07/17 07:11:58;;;;;;;8.50;3.08;;;;;;;;;;4934371;28;20134;-72
2022/07/17 07:14:23;;;;;;;10.88;3.20;;;;;;;;;;4938925;28;20039;-71
2022/07/17 07:16:49;;;;;;;5.93;2.30;;;;;;;;;;4935399;28;20125;-71
2022/07/17 07:19:14;;;;;;;7.10;2.30;;;;;;;;;;4937329;28;20739;-71
2022/07/17 07:21:39;;;;;;;7.38;2.70;;;;;;;;;;4940177;28;20039;-73
2022/07/17 07:24:04;;;;;;;7.22;3.20;;;;;;;;;;4938004;28;20706;-73
2022/07/17 07:26:32;;;;;;;7.18;3.42;;;;;;;;;;4936553;28;20046;-73
2022/07/17 07:28:57;;;;;;;8.15;3.42;;;;;;;;;;4942831;28;20054;-72
2022/07/17 07:31:23;;;;;;;8.27;4.32;;;;;;;;;;4937821;28;20035;-72
2022/07/17 07:33:48;;;;;;;7.80;2.35;;;;;;;;;;4937747;28;20035;-71
2022/07/17 07:36:16;;;;;;;8.07;1.83;;;;;;;;;;4933820;28;20146;-71
2022/07/17 07:38:41;;;;;;;9.77;2.08;;;;;;;;;;4937322;28;20955;-71
2022/07/17 07:41:07;;;;;;;6.07;1.70;;;;;;;;;;4935997;28;20154;-70
2022/07/17 07:43:32;;;;;;;5.60;1.25;;;;;;;;;;4937709;28;20026;-70
2022/07/17 07:46:00;;;;;;;4.90;1.88;;;;;;;;;;4936146;28;20240;-70
2022/07/17 07:48:28;;;;;;;9.13;3.83;;;;;;;;;;4949328;28;20042;-69
2022/07/17 07:50:56;;;;;;;5.85;2.58;;;;;;;;;;4937732;28;20035;-70
2022/07/17 07:53:21;;;;;;;5.88;2.97;;;;;;;;;;4932862;28;20038;-69
2022/07/17 07:55:47;;;;;;;8.85;3.50;;;;;;;;;;4934045;28;20031;-70
2022/07/17 07:58:12;;;;;;;12.65;5.05;;;;;;;;;;4933875;28;20129;-70
2022/07/17 08:00:43;;;;;;;10.38;4.15;;;;;;;;;;4932948;28;20046;-69
2022/07/17 08:03:08;;;;;;;8.82;1.83;;;;;;;;;;4966060;28;20700;-71
2022/07/17 08:05:36;;;;;;;5.25;1.30;;;;;;;;;;4966171;28;20046;-73
2022/07/17 08:08:01;;;;;;;6.53;1.40;;;;;;;;;;4967279;28;20039;-73
2022/07/17 08:10:29;;;;;;;7.38;2.03;;;;;;;;;;4955668;28;20035;-71
2022/07/17 08:12:59;;;;;;;5.80;2.08;;;;;;;;;;4937117;28;20081;-70
2022/07/17 08:15:24;;;;;;;7.07;3.03;;;;;;;;;;4942383;28;20034;-71
2022/07/17 08:17:50;;;;;;;9.07;3.78;;;;;;;;;;4937606;28;20395;-71
2022/07/17 08:20:16;;;;;;;3.95;1.73;;;;;;;;;;4966915;28;22548;-75
2022/07/17 08:22:42;;;;;;;8.38;2.78;;;;;;;;;;4934089;28;20125;-73
2022/07/17 08:25:08;;;;;;;8.52;2.92;;;;;;;;;;4932255;28;20034;-71
2022/07/17 08:27:36;;;;;;;6.95;2.50;;;;;;;;;;4932962;28;21067;-71
2022/07/17 08:30:02;;;;;;;7.97;2.83;;;;;;;;;;4933816;28;20062;-77
2022/07/17 08:32:28;;;;;;;8.45;2.80;;;;;;;;;;4932939;28;20078;-78
2022/07/17 08:34:57;;;;;;;8.38;2.22;;;;;;;;;;4934963;28;20103;-78
2022/07/17 08:37:24;;;;;;;8.57;2.70;;;;;;;;;;4931486;28;20289;-77
2022/07/17 08:39:49;;;;;;;7.25;2.80;;;;;;;;;;4931410;28;20483;-77
2022/07/17 08:42:16;;;;;;;4.70;2.25;;;;;;;;;;4931011;28;21785;-76
2022/07/17 08:44:44;;;;;;;7.28;2.50;;;;;;;;;;4932781;28;20058;-77
2022/07/17 08:47:11;;;;;;;8.98;2.60;;;;;;;;;;4930770;28;20173;-77
2022/07/17 08:49:40;;;;;;;6.63;2.30;;;;;;;;;;4931624;28;20031;-77
2022/07/17 08:52:05;;;;;;;7.22;2.28;;;;;;;;;;4934620;28;20097;-77
2022/07/17 08:54:31;;;;;;;6.20;2.10;;;;;;;;;;4949712;28;20492;-77
2022/07/17 08:57:01;;;;;;;6.20;1.58;;;;;;;;;;4963123;28;20039;-76
2022/07/17 08:59:29;;;;;;;4.53;1.30;;;;;;;;;;4944424;28;20027;-70
2022/07/17 09:01:54;;;;;;;5.38;1.42;;;;;;;;;;4933645;28;20677;-73
2022/07/17 09:04:20;;;;;;;5.22;1.25;;;;;;;;;;4934501;28;20042;-74
2022/07/17 09:07:00;;;;;;;4.32;1.30;;;;;;;;;;4934518;28;20969;-74
2022/07/17 09:09:28;;;;;;;5.07;1.20;;;;;;;;;;4936173;28;20031;-73
2022/07/17 09:11:55;;;;;;;4.82;1.45;;;;;;;;;;4949075;28;20109;-74
2022/07/17 09:14:21;;;;;;;5.25;1.40;;;;;;;;;;4933746;28;20931;-76
2022/07/17 09:16:56;;;;;;;3.90;1.27;;;;;;;;;;4934233;28;20027;-74
2022/07/17 09:19:24;;;;;;;3.55;1.23;;;;;;;;;;4939891;28;20829;-71
2022/07/17 09:21:50;;;;;;;5.25;1.35;;;;;;;;;;4947989;28;20046;-70
2022/07/17 09:24:16;;;;;;;3.00;1.35;;;;;;;;;;4933143;28;20114;-71
2022/07/17 09:26:44;;;;;;;6.20;1.38;;;;;;;;;;4933910;28;20153;-70
2022/07/17 09:29:11;;;;;;;5.18;1.20;;;;;;;;;;4947793;28;20461;-65
2022/07/17 09:31:37;;;;;;;4.20;1.40;;;;;;;;;;4934268;28;20045;-72
2022/07/17 09:34:02;;;;;;;7.53;1.40;;;;;;;;;;4932729;28;20030;-70
2022/07/17 09:36:28;;;;;;;3.38;1.00;;;;;;;;;;4947918;28;20479;-69
2022/07/17 09:38:54;;;;;;;5.47;1.27;;;;;;;;;;4932279;28;20035;-70
2022/07/17 09:41:21;;;;;;;13.73;2.00;;;;;;;;;;4932357;28;20042;-69
2022/07/17 09:43:48;;;;;;;5.00;1.67;;;;;;;;;;4933872;28;20125;-70
2022/07/17 09:46:15;;;;;;;6.97;1.35;;;;;;;;;;4936612;28;20065;-72
2022/07/17 09:48:42;;;;;;;6.50;2.45;;;;;;;;;;4932375;28;21140;-72
2022/07/17 09:51:08;;;;;;;7.88;2.88;;;;;;;;;;4932633;28;20058;-68
2022/07/17 09:53:36;;;;;;;9.38;3.05;;;;;;;;;;4933697;28;20046;-74
2022/07/17 09:56:02;;;;;;;7.93;2.75;;;;;;;;;;4932440;28;20249;-71
2022/07/17 09:58:29;;;;;;;8.20;2.40;;;;;;;;;;4934191;28;20104;-71
2022/07/17 10:00:54;;;;;;;9.63;2.92;;;;;;;;;;4934580;28;20887;-75
2022/07/17 10:03:19;;;;;;;5.90;2.28;;;;;;;;;;4959132;28;20038;-74
2022/07/17 10:05:47;;;;;;;5.95;2.42;;;;;;;;;;4978294;28;20037;-73
2022/07/17 10:08:15;;;;;;;5.78;2.72;;;;;;;;;;4973358;28;20042;-72
2022/07/17 10:10:41;;;;;;;8.60;1.80;;;;;;;;;;4962557;28;20706;-73
2022/07/17 10:13:08;;;;;;;6.38;2.10;;;;;;;;;;4967078;28;20108;-73
2022/07/17 10:15:33;;;;;;;5.78;1.58;;;;;;;;;;4958617;28;20094;-72
2022/07/17 10:18:05;;;;;;;4.00;1.52;;;;;;;;;;4963395;28;20038;-72
2022/07/17 10:20:33;;;;;;;6.38;1.67;;;;;;;;;;4957150;28;20073;-73
2022/07/17 10:22:59;;;;;;;6.20;1.27;;;;;;;;;;4965672;28;20042;-72
2022/07/17 10:25:26;;;;;;;3.90;1.35;;;;;;;;;;4944753;28;20035;-73
2022/07/17 10:27:53;;;;;;;4.70;1.30;;;;;;;;;;4939968;28;20078;-72
2022/07/17 10:30:28;;;;;;;5.50;1.10;;;;;;;;;;4956769;28;20042;-72
2022/07/17 10:32:58;;;;;;;4.18;1.20;;;;;;;;;;4936642;28;20043;-73
2022/07/17 10:35:27;;;;;;;4.07;1.17;;;;;;;;;;4943796;28;20893;-71
2022/07/17 10:37:53;;;;;;;4.90;1.17;;;;;;;;;;4951511;28;20097;-74
2022/07/17 10:40:21;;;;;;;5.47;1.40;;;;;;;;;;4945855;28;20046;-72
2022/07/17 10:42:52;;;;;;;2.67;0.80;;;;;;;;;;4944489;28;20570;-72
2022/07/17 10:45:21;;;;;;;4.22;1.13;;;;;;;;;;4953364;28;21011;-72
2022/07/17 10:47:49;;;;;;;3.80;1.20;;;;;;;;;;4940020;28;20150;-72
2022/07/17 10:50:19;;;;;;;3.35;1.20;;;;;;;;;;4936924;28;20049;-71
2022/07/17 10:52:44;;;;;;;3.90;1.38;;;;;;;;;;4938363;28;20038;-72
2022/07/17 10:55:19;;;;;;;5.97;1.30;;;;;;;;;;4950988;28;20037;-72
2022/07/17 10:57:47;;;;;;;8.02;1.45;;;;;;;;;;4939506;28;20035;-68
2022/07/17 11:00:13;;;;;;;5.38;1.33;;;;;;;;;;4935950;28;20039;-74
2022/07/17 11:02:40;;;;;;;5.05;1.30;;;;;;;;;;4934590;28;20042;-70
2022/07/17 11:05:07;;;;;;;2.97;0.95;;;;;;;;;;4932043;28;20730;-72
2022/07/17 11:07:32;;;;;;;7.32;1.25;;;;;;;;;;4933290;28;20729;-72
2022/07/17 11:09:58;;;;;;;4.32;1.40;;;;;;;;;;4965638;28;20094;-72
2022/07/17 11:12:33;;;;;;;4.03;1.40;;;;;;;;;;4934250;28;20038;-70
2022/07/17 11:14:59;;;;;;;3.13;1.10;;;;;;;;;;4934719;28;20035;-71
2022/07/17 11:17:25;;;;;;;3.25;1.10;;;;;;;;;;4950279;28;20108;-71
2022/07/17 11:19:50;;;;;;;4.05;1.30;;;;;;;;;;4947862;28;20137;-73
2022/07/17 11:22:15;;;;;;;3.47;1.33;;;;;;;;;;4940385;28;23295;-74
2022/07/17 11:24:45;;;;;;;3.22;1.00;;;;;;;;;;4964632;28;20035;-73
2022/07/17 11:27:10;;;;;;;3.05;1.02;;;;;;;;;;4938369;28;20129;-72
2022/07/17 11:29:39;;;;;;;3.25;1.00;;;;;;;;;;4938839;28;20041;-73
2022/07/17 11:32:05;;;;;;;2.75;1.20;;;;;;;;;;4938899;28;20880;-71
2022/07/17 11:34:30;;;;;;;4.00;1.27;;;;;;;;;;4935262;28;20031;-73
2022/07/17 11:37:03;;;;;;;4.80;1.10;;;;;;;;;;4937442;28;20030;-75
2022/07/17 11:39:39;;;;;;;4.65;1.20;;;;;;;;;;4938984;28;20542;-73
2022/07/17 11:42:07;;;;;;;2.70;1.00;;;;;;;;;;4955501;28;20122;-75
2022/07/17 11:44:35;;;;;;;2.45;1.05;;;;;;;;;;4941383;28;21022;-76
2022/07/17 11:47:01;;;;;;;5.05;1.10;;;;;;;;;;4939679;28;20873;-73
2022/07/17 11:49:30;;;;;;;5.05;1.23;;;;;;;;;;4936707;28;20135;-74
2022/07/17 11:51:56;;;;;;;4.63;1.38;;;;;;;;;;4939890;28;20042;-72
2022/07/17 11:54:22;;;;;;;3.40;1.10;;;;;;;;;;4938408;28;20055;-78
2022/07/17 11:56:53;;;;;;;2.95;1.10;;;;;;;;;;4937610;28;20124;-80
2022/07/17 11:59:28;;;;;;;2.63;1.17;;;;;;;;;;4943721;28;20118;-78
2022/07/17 12:01:53;;;;;;;3.50;1.27;;;;;;;;;;4938074;28;20049;-76
2022/07/17 12:04:18;;;;;;;4.30;1.30;;;;;;;;;;4946188;28;20691;-76
2022/07/17 12:06:57;;;;;;;3.65;0.88;;;;;;;;;;4951621;28;22217;-77
2022/07/17 12:09:26;;;;;;;4.47;1.42;;;;;;;;;;4948103;28;20038;-75
2022/07/17 12:11:51;;;;;;;5.57;1.30;;;;;;;;;;4945164;28;20506;-75
2022/07/17 12:14:19;;;;;;;4.85;1.20;;;;;;;;;;4960993;28;20059;-76
2022/07/17 12:16:47;;;;;;;3.50;1.35;;;;;;;;;;4943665;28;20041;-77
2022/07/17 12:19:14;;;;;;;5.43;1.42;;;;;;;;;;4952918;28;20042;-76
2022/07/17 12:21:55;;;;;;;2.60;0.90;;;;;;;;;;4937997;28;20031;-78
2022/07/17 12:24:21;;;;;;;4.63;1.40;;;;;;;;;;4937891;28;20109;-74
2022/07/17 12:26:46;;;;;;;3.13;1.15;;;;;;;;;;4940085;28;20039;-74
2022/07/17 12:29:12;;;;;;;3.80;1.10;;;;;;;;;;4940025;28;20050;-73
2022/07/17 12:31:42;;;;;;;3.03;1.08;;;;;;;;;;4941177;28;20109;-73
2022/07/17 12:34:08;;;;;;;4.55;1.35;;;;;;;;;;4942729;28;20030;-76
2022/07/17 12:36:35;;;;;;;5.97;1.30;;;;;;;;;;4928428;28;20050;-77
2022/07/17 12:39:00;;;;;;;3.10;1.00;;;;;;;;;;4927803;28;20039;-73
2022/07/17 12:41:26;;;;;;;5.00;1.30;;;;;;;;;;4935477;28;20213;-73
2022/07/17 12:43:54;;;;;;;3.70;1.20;;;;;;;;;;4923875;28;20857;-69
2022/07/17 12:46:19;;;;;;;2.28;0.93;;;;;;;;;;4950917;28;20786;-72
2022/07/17 12:48:45;;;;;;;2.70;0.90;;;;;;;;;;4936704;28;20051;-71
2022/07/17 12:51:12;;;;;;;2.10;1.13;;;;;;;;;;4934436;28;20763;-71
2022/07/17 12:53:38;;;;;;;4.47;1.40;;;;;;;;;;4933524;28;20100;-71
2022/07/17 12:56:04;;;;;;;3.03;1.20;;;;;;;;;;4931403;28;20138;-71
2022/07/17 12:58:30;;;;;;;3.90;1.35;;;;;;;;;;4934189;28;20050;-71
2022/07/17 13:00:57;;;;;;;3.65;1.30;;;;;;;;;;4935223;28;20035;-73
2022/07/17 13:03:22;;;;;;;3.55;1.50;;;;;;;;;;4936561;28;20027;-70
2022/07/17 13:05:48;;;;;;;2.95;1.27;;;;;;;;;;4935569;28;20566;-71
2022/07/17 13:08:13;;;;;;;2.72;1.02;;;;;;;;;;4950487;28;20042;-71
2022/07/17 13:10:39;;;;;;;3.80;1.00;;;;;;;;;;4934130;28;20049;-70
2022/07/17 13:13:05;;;;;;;3.17;1.10;;;;;;;;;;4933960;28;20286;-68
2022/07/17 13:15:30;;;;;;;2.83;1.10;;;;;;;;;;4935365;28;20041;-70
2022/07/17 13:17:56;;;;;;;2.40;1.17;;;;;;;;;;4947845;28;20195;-69
2022/07/17 13:20:22;;;;;;;3.90;1.30;;;;;;;;;;4933885;28;20822;-70
2022/07/17 13:22:47;;;;;;;4.10;1.00;;;;;;;;;;4934530;28;20042;-68
2022/07/17 13:25:12;;;;;;;3.92;1.10;;;;;;;;;;4938680;28;20031;-73
2022/07/17 13:27:37;;;;;;;6.30;1.20;;;;;;;;;;4936924;28;20201;-70
2022/07/17 13:30:06;;;;;;;6.10;1.45;;;;;;;;;;4932751;28;20089;-71
2022/07/17 13:32:33;;;;;;;4.80;1.30;;;;;;;;;;4932799;28;20043;-71
2022/07/17 13:34:58;;;;;;;3.15;0.90;;;;;;;;;;4937499;28;20133;-71
2022/07/17 13:37:24;;;;;;;4.60;1.48;;;;;;;;;;4948620;28;20137;-71
2022/07/17 13:39:49;;;;;;;2.10;1.10;;;;;;;;;;4948274;28;20681;-72
2022/07/17 13:42:15;;;;;;;5.07;1.00;;;;;;;;;;4948332;28;22513;-71
2022/07/17 13:44:41;;;;;;;3.17;1.10;;;;;;;;;;4936364;28;20031;-71
2022/07/17 13:47:06;;;;;;;3.22;1.10;;;;;;;;;;4935443;28;20177;-71
2022/07/17 13:49:31;;;;;;;2.97;1.20;;;;;;;;;;4935369;28;20030;-71
2022/07/17 13:51:57;;;;;;;4.93;1.13;;;;;;;;;;4954878;28;20636;-73
2022/07/17 13:54:23;;;;;;;4.47;1.20;;;;;;;;;;4945930;28;20035;-72
2022/07/17 13:56:52;;;;;;;3.95;1.20;;;;;;;;;;4944417;28;21214;-71
2022/07/17 13:59:18;;;;;;;2.70;1.35;;;;;;;;;;4941396;28;20031;-72
2022/07/17 14:01:43;;;;;;;3.15;1.20;;;;;;;;;;4943055;28;20051;-70
2022/07/17 14:04:08;;;;;;;3.33;1.10;;;;;;;;;;4935429;28;20038;-72
2022/07/17 14:06:33;;;;;;;3.53;1.30;;;;;;;;;;4937784;28;20086;-74
2022/07/17 14:08:59;;;;;;;3.35;1.30;;;;;;;;;;4939399;28;20049;-73
2022/07/17 14:11:27;;;;;;;3.78;1.13;;;;;;;;;;4934658;28;21130;-70
2022/07/17 14:13:52;;;;;;;1.80;1.10;;;;;;;;;;4948626;28;20111;-70
2022/07/17 14:16:17;;;;;;;5.30;1.30;;;;;;;;;;4946887;28;21144;-71
2022/07/17 14:18:58;;;;;;;2.53;1.30;;;;;;;;;;4942607;28;20145;-75
2022/07/17 14:21:24;;;;;;;3.35;1.10;;;;;;;;;;4936057;28;20132;-71
2022/07/17 14:23:52;;;;;;;3.08;1.05;;;;;;;;;;4935211;28;20141;-73
2022/07/17 14:26:17;;;;;;;6.72;1.17;;;;;;;;;;4935784;28;20039;-72
2022/07/17 14:28:43;;;;;;;3.25;1.48;;;;;;;;;;4942464;28;20113;-74
2022/07/17 14:31:10;;;;;;;5.10;1.63;;;;;;;;;;4942795;28;20047;-73
2022/07/17 14:33:36;;;;;;;3.67;1.45;;;;;;;;;;4932974;28;20081;-73
2022/07/17 14:36:04;;;;;;;3.53;1.13;;;;;;;;;;4928924;28;20163;-70